createdAt,value
2022-10-05T00:02:24.595Z,98873.69
2022-10-05T00:04:56.990Z,98868.50
2022-10-05T00:07:25.352Z,98875.88
2022-10-05T00:09:57.755Z,98877.94
2022-10-05T00:12:26.786Z,98877.25
2022-10-05T00:14:58.266Z,98871.16
2022-10-05T00:17:28.230Z,98883.78
2022-10-05T00:19:55.785Z,98880.84
2022-10-05T00:22:33.562Z,98873.38
2022-10-05T00:25:02.243Z,98878.66
2022-10-05T00:27:36.441Z,98881.88
2022-10-05T00:30:13.616Z,98872.22
2022-10-05T00:32:40.978Z,98876.47
2022-10-05T00:35:09.186Z,98873.84
2022-10-05T00:37:36.992Z,98875.13
2022-10-05T00:40:40.519Z,98871.03
2022-10-05T00:43:30.766Z,98869.81
2022-10-05T00:46:08.684Z,98871.72
2022-10-05T00:48:48.834Z,98867.41
2022-10-05T00:51:30.567Z,98877.66
2022-10-05T00:54:24.677Z,98874.09
2022-10-05T00:57:12.036Z,98871.88
2022-10-05T01:00:01.260Z,98871.22
2022-10-05T01:03:38.114Z,98866.03
2022-10-05T01:06:47.093Z,98863.28
2022-10-05T01:09:47.914Z,98872.84
2022-10-05T01:13:07.690Z,98868.44
2022-10-05T01:16:15.561Z,98866.84
2022-10-05T01:19:10.130Z,98853.81
2022-10-05T01:21:54.268Z,98855.63
2022-10-05T01:24:33.088Z,98858.19
2022-10-05T01:27:55.815Z,98860.13
2022-10-05T01:30:23.565Z,98862.38
2022-10-05T01:32:53.595Z,98862.22
2022-10-05T01:35:32.223Z,98865.13
2022-10-05T01:38:21.976Z,98854.59
2022-10-05T01:41:12.659Z,98856.31
2022-10-05T01:44:09.545Z,98855.91
2022-10-05T01:46:43.853Z,98861.38
2022-10-05T01:49:40.931Z,98857.81
2022-10-05T01:52:54.731Z,98850.53
2022-10-05T01:55:52.411Z,98852.69
2022-10-05T01:58:36.086Z,98859.38
2022-10-05T02:01:30.854Z,98853.41
2022-10-05T02:04:24.401Z,98853.50
2022-10-05T02:07:06.422Z,98853.66
2022-10-05T02:09:43.885Z,98852.81
2022-10-05T02:12:19.033Z,98854.75
2022-10-05T02:14:56.820Z,98849.53
2022-10-05T02:17:38.772Z,98851.91
2022-10-05T02:20:11.623Z,98851.72
2022-10-05T02:23:03.530Z,98848.22
2022-10-05T02:25:36.650Z,98843.31
2022-10-05T02:28:28.195Z,98840.03
2022-10-05T02:31:05.056Z,98836.81
2022-10-05T02:33:34.102Z,98831.03
2022-10-05T02:36:15.977Z,98823.34
2022-10-05T02:38:59.294Z,98817.75
2022-10-05T02:41:53.756Z,98818.69
2022-10-05T02:44:31.979Z,98816.53
2022-10-05T02:47:35.927Z,98823.69
2022-10-05T02:50:38.825Z,98828.69
2022-10-05T02:53:23.582Z,98822.34
2022-10-05T02:56:17.442Z,98835.31
2022-10-05T02:59:04.980Z,98838.69
2022-10-05T03:01:49.610Z,98848.03
2022-10-05T03:05:17.169Z,98844.88
2022-10-05T03:08:13.497Z,98851.66
2022-10-05T03:10:59.654Z,98852.78
2022-10-05T03:13:49.686Z,98848.97
2022-10-05T03:16:50.581Z,98840.47
2022-10-05T03:19:57.549Z,98849.31
2022-10-05T03:22:59.923Z,98852.94
2022-10-05T03:25:36.838Z,98843.09
2022-10-05T03:28:22.482Z,98837.34
2022-10-05T03:30:58.766Z,98838.41
2022-10-05T03:33:52.381Z,98823.44
2022-10-05T03:36:32.768Z,98816.06
2022-10-05T03:39:17.197Z,98816.50
2022-10-05T03:42:15.257Z,98809.03
2022-10-05T03:44:49.124Z,98813.16
2022-10-05T03:48:01.640Z,98802.63
2022-10-05T03:51:15.324Z,98798.91
2022-10-05T03:53:49.821Z,98797.13
2022-10-05T03:56:41.912Z,98799.53
2022-10-05T03:59:32.581Z,98797.84
2022-10-05T04:02:07.895Z,98789.56
2022-10-05T04:04:52.966Z,98788.91
2022-10-05T04:07:44.541Z,98793.91
2022-10-05T04:10:23.877Z,98783.75
2022-10-05T04:13:11.726Z,98793.06
2022-10-05T04:16:18.542Z,98792.38
2022-10-05T04:18:59.272Z,98784.59
2022-10-05T04:21:48.237Z,98787.84
2022-10-05T04:24:37.929Z,98789.00
2022-10-05T04:27:21.414Z,98780.28
2022-10-05T04:30:12.768Z,98785.63
2022-10-05T04:32:52.480Z,98780.81
2022-10-05T04:35:53.279Z,98776.28
2022-10-05T04:38:48.749Z,98781.16
2022-10-05T04:41:52.364Z,98783.38
2022-10-05T04:44:49.426Z,98786.47
2022-10-05T04:47:58.153Z,98791.41
2022-10-05T04:51:01.207Z,98792.97
2022-10-05T04:53:40.646Z,98792.41
2022-10-05T04:56:33.837Z,98793.00
2022-10-05T04:59:22.441Z,98794.25
2022-10-05T05:02:03.504Z,98804.78
2022-10-05T05:04:32.216Z,98810.63
2022-10-05T05:07:17.864Z,98815.13
2022-10-05T05:09:56.837Z,98818.97
2022-10-05T05:12:38.934Z,98820.56
2022-10-05T05:15:05.882Z,98828.53
2022-10-05T05:18:00.588Z,98829.78
2022-10-05T05:20:28.008Z,98827.78
2022-10-05T05:23:27.847Z,98833.91
2022-10-05T05:26:08.892Z,98831.38
2022-10-05T05:28:55.511Z,98830.09
2022-10-05T05:31:36.132Z,98834.66
2022-10-05T05:34:37.121Z,98848.91
2022-10-05T05:37:20.193Z,98850.16
2022-10-05T05:40:07.937Z,98845.09
2022-10-05T05:43:11.268Z,98841.97
2022-10-05T05:45:59.374Z,98845.16
2022-10-05T05:48:40.349Z,98841.31
2022-10-05T05:51:14.543Z,98845.41
2022-10-05T05:53:52.356Z,98847.50
2022-10-05T05:56:39.020Z,98849.94
2022-10-05T05:59:27.867Z,98853.09
2022-10-05T06:02:20.277Z,98847.53
2022-10-05T06:04:57.000Z,98850.28
2022-10-05T06:07:30.850Z,98853.41
2022-10-05T06:10:34.771Z,98861.31
2022-10-05T06:13:24.327Z,98869.09
2022-10-05T06:15:58.542Z,98861.31
2022-10-05T06:18:26.091Z,98855.97
2022-10-05T06:21:42.226Z,98865.13
2022-10-05T06:24:18.237Z,98878.41
2022-10-05T06:27:19.634Z,98891.25
2022-10-05T06:30:08.051Z,98899.09
2022-10-05T06:33:04.250Z,98897.16
2022-10-05T06:36:19.270Z,98898.44
2022-10-05T06:39:33.573Z,98899.38
2022-10-05T06:42:26.234Z,98893.88
2022-10-05T06:45:20.962Z,98903.00
2022-10-05T06:48:16.186Z,98905.06
2022-10-05T06:52:18.898Z,98905.47
2022-10-05T06:55:22.937Z,98902.06
2022-10-05T06:58:31.095Z,98905.06
2022-10-05T07:01:40.609Z,98907.13
2022-10-05T07:04:40.875Z,98904.19
2022-10-05T07:07:28.977Z,98902.22
2022-10-05T07:10:32.546Z,98909.06
2022-10-05T07:13:28.622Z,98910.31
2022-10-05T07:16:21.373Z,98907.63
2022-10-05T07:19:25.817Z,98910.34
2022-10-05T07:22:01.619Z,98909.25
2022-10-05T07:24:41.308Z,98913.13
2022-10-05T07:27:25.261Z,98920.59
2022-10-05T07:30:09.293Z,98918.81
2022-10-05T07:33:09.537Z,98911.06
2022-10-05T07:36:37.727Z,98921.94
2022-10-05T07:39:36.763Z,98919.88
2022-10-05T07:42:50.677Z,98920.78
2022-10-05T07:45:30.107Z,98921.44
2022-10-05T07:48:36.744Z,98919.38
2022-10-05T07:51:29.282Z,98923.31
2022-10-05T07:54:15.761Z,98925.31
2022-10-05T07:56:46.998Z,98924.72
2022-10-05T07:59:35.635Z,98918.56
2022-10-05T08:02:27.229Z,98919.00
2022-10-05T08:05:30.975Z,98921.44
2022-10-05T08:08:23.895Z,98913.06
2022-10-05T08:11:17.566Z,98909.88
2022-10-05T08:14:08.101Z,98907.88
2022-10-05T08:16:38.441Z,98914.03
2022-10-05T08:19:24.210Z,98921.31
2022-10-05T08:22:09.882Z,98916.72
2022-10-05T08:25:01.258Z,98907.22
2022-10-05T08:27:53.546Z,98910.19
2022-10-05T08:30:20.761Z,98908.72
2022-10-05T08:33:07.930Z,98902.63
2022-10-05T08:35:45.357Z,98908.09
2022-10-05T08:38:19.525Z,98897.84
2022-10-05T08:41:11.925Z,98903.69
2022-10-05T08:44:02.985Z,98904.31
2022-10-05T08:46:42.611Z,98895.09
2022-10-05T08:49:44.590Z,98900.44
2022-10-05T08:52:30.207Z,98895.19
2022-10-05T08:55:12.205Z,98886.19
2022-10-05T08:58:06.023Z,98882.16
2022-10-05T09:01:02.877Z,98885.16
2022-10-05T09:04:10.622Z,98884.66
2022-10-05T09:06:57.268Z,98885.66
2022-10-05T09:09:32.116Z,98880.81
2022-10-05T09:12:33.145Z,98880.22
2022-10-05T09:15:26.520Z,98868.44
2022-10-05T09:18:39.762Z,98874.03
2022-10-05T09:21:23.506Z,98869.03
2022-10-05T09:24:10.911Z,98864.81
2022-10-05T09:26:42.538Z,98868.78
2022-10-05T09:29:36.693Z,98871.63
2022-10-05T09:32:32.034Z,98860.13
2022-10-05T09:35:13.838Z,98859.78
2022-10-05T09:38:26.769Z,98847.69
2022-10-05T09:41:34.005Z,98861.00
2022-10-05T09:44:37.281Z,98865.28
2022-10-05T09:47:29.112Z,98856.47
2022-10-05T09:50:11.975Z,98857.09
2022-10-05T09:53:12.679Z,98844.16
2022-10-05T09:56:15.654Z,98846.16
2022-10-05T09:59:06.471Z,98846.06
2022-10-05T10:01:51.956Z,98845.34
2022-10-05T10:05:04.111Z,98840.97
2022-10-05T10:08:20.664Z,98839.84
2022-10-05T10:11:05.290Z,98826.97
2022-10-05T10:14:12.907Z,98828.41
2022-10-05T10:17:21.654Z,98832.03
2022-10-05T10:20:06.245Z,98819.22
2022-10-05T10:22:43.212Z,98824.91
2022-10-05T10:25:37.894Z,98817.28
2022-10-05T10:28:35.721Z,98825.41
2022-10-05T10:31:31.250Z,98825.72
2022-10-05T10:34:27.513Z,98820.16
2022-10-05T10:37:39.781Z,98817.66
2022-10-05T10:40:53.865Z,98809.78
2022-10-05T10:43:53.583Z,98807.06
2022-10-05T10:47:05.070Z,98802.31
2022-10-05T10:50:11.931Z,98802.69
2022-10-05T10:53:02.794Z,98803.25
2022-10-05T10:55:39.306Z,98805.66
2022-10-05T10:58:15.100Z,98785.56
2022-10-05T11:01:01.750Z,98781.63
2022-10-05T11:03:51.722Z,98779.78
2022-10-05T11:06:33.908Z,98774.25
2022-10-05T11:09:44.210Z,98776.84
2022-10-05T11:12:29.829Z,98765.28
2022-10-05T11:15:11.398Z,98762.38
2022-10-05T11:18:09.025Z,98764.03
2022-10-05T11:20:59.919Z,98762.44
2022-10-05T11:23:37.951Z,98749.75
2022-10-05T11:26:11.804Z,98744.91
2022-10-05T11:28:52.631Z,98735.31
2022-10-05T11:31:57.975Z,98735.13
2022-10-05T11:34:25.287Z,98738.59
2022-10-05T11:37:24.487Z,98726.13
2022-10-05T11:40:10.435Z,98726.50
2022-10-05T11:42:47.322Z,98719.94
2022-10-05T11:45:25.131Z,98725.25
2022-10-05T11:48:17.353Z,98710.75
2022-10-05T11:51:15.630Z,98714.16
2022-10-05T11:54:05.003Z,98704.41
2022-10-05T11:56:59.247Z,98698.91
2022-10-05T12:00:00.763Z,98705.59
2022-10-05T12:02:43.905Z,98708.03
2022-10-05T12:05:22.564Z,98704.88
2022-10-05T12:08:12.398Z,98698.34
2022-10-05T12:10:56.286Z,98698.88
2022-10-05T12:13:25.739Z,98689.97
2022-10-05T12:15:59.995Z,98696.75
2022-10-05T12:19:13.422Z,98695.91
2022-10-05T12:21:59.999Z,98689.16
2022-10-05T12:24:51.486Z,98687.75
2022-10-05T12:27:22.851Z,98682.44
2022-10-05T12:29:57.050Z,98690.38
2022-10-05T12:32:48.302Z,98681.66
2022-10-05T12:35:30.067Z,98675.09
2022-10-05T12:38:15.534Z,98672.56
2022-10-05T12:40:47.856Z,98683.72
2022-10-05T12:43:21.233Z,98676.00
2022-10-05T12:46:08.122Z,98669.59
2022-10-05T12:48:56.612Z,98663.78
2022-10-05T12:51:23.908Z,98662.53
2022-10-05T12:54:00.426Z,98664.53
2022-10-05T12:56:44.588Z,98665.63
2022-10-05T12:59:17.989Z,98659.78
2022-10-05T13:02:11.360Z,98660.94
2022-10-05T13:04:51.528Z,98667.66
2022-10-05T13:07:52.784Z,98649.94
2022-10-05T13:10:43.796Z,98657.63
2022-10-05T13:13:30.014Z,98641.25
2022-10-05T13:16:17.995Z,98636.56
2022-10-05T13:18:58.852Z,98640.31
2022-10-05T13:21:47.205Z,98639.09
2022-10-05T13:24:36.865Z,98633.91
2022-10-05T13:27:18.320Z,98628.69
2022-10-05T13:29:56.377Z,98630.16
2022-10-05T13:32:36.833Z,98623.63
2022-10-05T13:35:22.311Z,98625.44
2022-10-05T13:38:01.764Z,98623.28
2022-10-05T13:40:53.687Z,98631.94
2022-10-05T13:43:45.446Z,98633.88
2022-10-05T13:46:38.959Z,98628.97
2022-10-05T13:49:18.407Z,98641.66
2022-10-05T13:51:58.578Z,98632.09
2022-10-05T13:54:31.778Z,98623.38
2022-10-05T13:57:11.431Z,98627.66
2022-10-05T13:59:46.837Z,98622.25
2022-10-05T14:02:20.474Z,98619.91
2022-10-05T14:04:58.444Z,98622.63
2022-10-05T14:07:39.361Z,98615.59
2022-10-05T14:10:14.260Z,98610.44
2022-10-05T14:12:43.578Z,98616.69
2022-10-05T14:15:28.130Z,98602.97
2022-10-05T14:17:55.611Z,98608.34
2022-10-05T14:20:34.317Z,98600.06
2022-10-05T14:23:17.304Z,98607.09
2022-10-05T14:25:53.734Z,98607.28
2022-10-05T14:28:31.800Z,98602.31
2022-10-05T14:31:10.620Z,98606.09
2022-10-05T14:33:38.390Z,98605.22
2022-10-05T14:36:21.257Z,98599.19
2022-10-05T14:39:02.100Z,98598.16
2022-10-05T14:41:29.814Z,98603.13
2022-10-05T14:44:01.959Z,98603.97
2022-10-05T14:46:32.793Z,98595.44
2022-10-05T14:49:27.391Z,98597.72
2022-10-05T14:51:55.753Z,98597.09
2022-10-05T14:54:41.294Z,98593.16
2022-10-05T14:57:34.097Z,98598.75
2022-10-05T15:00:19.905Z,98603.50
2022-10-05T15:02:53.152Z,98596.16
2022-10-05T15:05:38.622Z,98596.75
2022-10-05T15:08:27.078Z,98601.13
2022-10-05T15:11:08.062Z,98605.84
2022-10-05T15:13:42.020Z,98597.94
2022-10-05T15:16:19.808Z,98602.69
2022-10-05T15:19:07.313Z,98607.44
2022-10-05T15:21:55.184Z,98602.19
2022-10-05T15:24:26.419Z,98610.06
2022-10-05T15:26:59.520Z,98611.41
2022-10-05T15:29:52.532Z,98613.53
2022-10-05T15:32:43.672Z,98618.00
2022-10-05T15:35:25.292Z,98618.81
2022-10-05T15:38:18.710Z,98618.75
2022-10-05T15:40:54.748Z,98615.75
2022-10-05T15:43:23.936Z,98618.75
2022-10-05T15:46:01.024Z,98618.94
2022-10-05T15:48:48.345Z,98622.59
2022-10-05T15:51:24.390Z,98626.97
2022-10-05T15:54:19.848Z,98627.88
2022-10-05T15:57:08.384Z,98627.06
2022-10-05T16:00:00.339Z,98617.34
2022-10-05T16:02:51.904Z,98622.97
2022-10-05T16:05:44.507Z,98626.38
2022-10-05T16:08:52.048Z,98632.91
2022-10-05T16:11:40.444Z,98636.06
2022-10-05T16:14:29.314Z,98639.59
2022-10-05T16:17:05.650Z,98635.59
2022-10-05T16:19:51.744Z,98641.72
2022-10-05T16:22:34.049Z,98647.72
2022-10-05T16:25:23.831Z,98651.72
2022-10-05T16:28:22.379Z,98651.88
2022-10-05T16:31:06.103Z,98648.16
2022-10-05T16:33:54.577Z,98655.81
2022-10-05T16:36:32.635Z,98652.72
2022-10-05T16:39:38.055Z,98653.66
2022-10-05T16:42:42.706Z,98656.44
2022-10-05T16:45:27.934Z,98662.78
2022-10-05T16:48:09.708Z,98666.72
2022-10-05T16:50:38.740Z,98663.25
2022-10-05T16:53:39.023Z,98663.13
2022-10-05T16:56:28.952Z,98672.75
2022-10-05T16:58:59.624Z,98673.88
2022-10-05T17:01:55.329Z,98673.88
2022-10-05T17:04:46.083Z,98677.25
2022-10-05T17:07:34.654Z,98685.22
2022-10-05T17:10:35.819Z,98673.47
2022-10-05T17:13:24.680Z,98687.75
2022-10-05T17:16:21.632Z,98687.69
2022-10-05T17:19:19.487Z,98683.84
2022-10-05T17:22:01.023Z,98687.47
2022-10-05T17:24:50.914Z,98689.69
2022-10-05T17:27:41.132Z,98697.81
2022-10-05T17:30:39.103Z,98692.41
2022-10-05T17:33:13.959Z,98701.13
2022-10-05T17:36:08.548Z,98701.81
2022-10-05T17:38:48.906Z,98700.28
2022-10-05T17:41:30.117Z,98705.31
2022-10-05T17:44:19.108Z,98706.28
2022-10-05T17:46:48.260Z,98705.63
2022-10-05T17:49:34.250Z,98706.88
2022-10-05T17:52:22.982Z,98708.94
2022-10-05T17:55:08.819Z,98710.47
2022-10-05T17:57:36.918Z,98716.72
2022-10-05T18:00:25.352Z,98715.59
2022-10-05T18:02:56.485Z,98726.44
2022-10-05T18:05:27.780Z,98726.28
2022-10-05T18:08:13.570Z,98733.53
2022-10-05T18:11:09.458Z,98751.13
2022-10-05T18:13:41.596Z,98749.72
2022-10-05T18:16:11.012Z,98758.84
2022-10-05T18:18:44.142Z,98758.06
2022-10-05T18:21:14.554Z,98758.44
2022-10-05T18:24:03.133Z,98762.53
2022-10-05T18:26:45.702Z,98765.00
2022-10-05T18:30:03.275Z,98774.75
2022-10-05T18:32:42.622Z,98777.69
2022-10-05T18:35:29.824Z,98774.09
2022-10-05T18:38:10.300Z,98773.06
2022-10-05T18:40:40.121Z,98776.47
2022-10-05T18:43:26.557Z,98778.16
2022-10-05T18:45:57.687Z,98776.75
2022-10-05T18:48:43.134Z,98783.56
2022-10-05T18:51:21.903Z,98788.25
2022-10-05T18:54:03.465Z,98781.09
2022-10-05T18:56:50.006Z,98785.63
2022-10-05T18:59:47.839Z,98797.00
2022-10-05T19:02:31.081Z,98796.72
2022-10-05T19:05:45.875Z,98795.38
2022-10-05T19:08:30.504Z,98803.53
2022-10-05T19:11:16.752Z,98808.16
2022-10-05T19:14:22.501Z,98814.00
2022-10-05T19:17:08.218Z,98823.75
2022-10-05T19:20:00.905Z,98827.63
2022-10-05T19:23:05.753Z,98833.13
2022-10-05T19:26:03.199Z,98843.50
2022-10-05T19:28:53.075Z,98839.13
2022-10-05T19:31:29.864Z,98841.53
2022-10-05T19:34:39.134Z,98847.94
2022-10-05T19:37:21.108Z,98850.25
2022-10-05T19:40:18.130Z,98851.16
2022-10-05T19:42:46.098Z,98863.06
2022-10-05T19:45:19.149Z,98867.44
2022-10-05T19:48:05.807Z,98866.81
2022-10-05T19:50:35.408Z,98876.16
2022-10-05T19:53:17.130Z,98875.31
2022-10-05T19:55:47.083Z,98878.09
2022-10-05T19:58:20.331Z,98882.31
2022-10-05T20:01:01.965Z,98899.47
2022-10-05T20:03:31.162Z,98902.84
2022-10-05T20:06:00.442Z,98897.69
2022-10-05T20:08:37.066Z,98899.50
2022-10-05T20:11:15.688Z,98908.69
2022-10-05T20:13:55.153Z,98906.03
2022-10-05T20:16:51.097Z,98903.84
2022-10-05T20:19:52.066Z,98908.31
2022-10-05T20:22:32.981Z,98908.38
2022-10-05T20:25:06.515Z,98920.56
2022-10-05T20:27:42.837Z,98928.13
2022-10-05T20:30:21.818Z,98928.47
2022-10-05T20:32:57.575Z,98935.22
2022-10-05T20:35:27.812Z,98940.13
2022-10-05T20:37:59.314Z,98947.47
2022-10-05T20:40:29.170Z,98950.13
2022-10-05T20:42:57.966Z,98952.69
2022-10-05T20:45:25.345Z,98946.75
2022-10-05T20:47:52.701Z,98961.16
2022-10-05T20:50:21.074Z,98962.66
2022-10-05T20:52:48.401Z,98966.16
2022-10-05T20:55:15.885Z,98964.84
2022-10-05T20:57:43.312Z,98963.06
2022-10-05T21:00:11.704Z,98981.91
2022-10-05T21:02:39.387Z,98978.78
2022-10-05T21:05:07.913Z,98980.94
2022-10-05T21:07:35.329Z,98982.13
2022-10-05T21:10:03.701Z,98983.41
2022-10-05T21:12:32.726Z,98989.22
2022-10-05T21:15:00.377Z,98991.50
2022-10-05T21:17:27.718Z,98996.09
2022-10-05T21:19:55.057Z,98994.53
2022-10-05T21:22:22.450Z,99006.75
2022-10-05T21:24:49.762Z,98996.06
2022-10-05T21:27:17.111Z,99008.50
2022-10-05T21:29:45.377Z,99007.19
2022-10-05T21:32:12.798Z,99011.16
2022-10-05T21:34:40.862Z,99018.25
2022-10-05T21:37:08.692Z,99017.56
2022-10-05T21:39:36.741Z,99016.59
2022-10-05T21:42:04.429Z,99014.91
2022-10-05T21:44:32.025Z,99026.44
2022-10-05T21:47:00.157Z,99027.88
2022-10-05T21:49:27.985Z,99022.22
2022-10-05T21:51:55.401Z,99030.28
2022-10-05T21:54:23.261Z,99023.03
2022-10-05T21:56:53.513Z,99039.84
2022-10-05T21:59:23.744Z,99043.28
2022-10-05T22:01:51.209Z,99039.88
2022-10-05T22:04:18.567Z,99041.78
2022-10-05T22:06:45.916Z,99041.47
2022-10-05T22:09:13.274Z,99042.00
2022-10-05T22:11:40.657Z,99038.59
2022-10-05T22:14:07.996Z,99039.47
2022-10-05T22:16:37.273Z,99038.66
2022-10-05T22:19:05.865Z,99038.31
2022-10-05T22:21:37.807Z,99044.78
2022-10-05T22:24:05.466Z,99049.00
2022-10-05T22:26:33.249Z,99051.34
2022-10-05T22:29:01.725Z,99058.69
2022-10-05T22:31:29.335Z,99053.84
2022-10-05T22:33:56.954Z,99056.84
2022-10-05T22:36:24.286Z,99060.72
2022-10-05T22:38:51.671Z,99059.56
2022-10-05T22:41:19.397Z,99051.63
2022-10-05T22:43:50.787Z,99059.53
2022-10-05T22:46:18.599Z,99063.00
2022-10-05T22:48:46.032Z,99071.22
2022-10-05T22:51:13.342Z,99072.81
2022-10-05T22:53:40.800Z,99069.25
2022-10-05T22:56:10.245Z,99067.75
2022-10-05T22:58:38.070Z,99070.22
2022-10-05T23:01:07.253Z,99075.38
2022-10-05T23:03:34.889Z,99073.50
2022-10-05T23:06:08.225Z,99076.25
2022-10-05T23:08:37.065Z,99070.38
2022-10-05T23:11:16.181Z,99067.13
2022-10-05T23:13:44.085Z,99074.81
2022-10-05T23:16:12.182Z,99075.81
2022-10-05T23:18:39.648Z,99077.25
2022-10-05T23:21:08.389Z,99076.56
2022-10-05T23:23:40.573Z,99083.59
2022-10-05T23:26:10.071Z,99085.63
2022-10-05T23:28:38.616Z,99084.03
2022-10-05T23:31:07.859Z,99086.47
2022-10-05T23:33:35.495Z,99089.63
2022-10-05T23:36:09.764Z,99086.59
2022-10-05T23:38:37.565Z,99095.38
2022-10-05T23:41:05.642Z,99099.22
2022-10-05T23:43:33.470Z,99098.63
2022-10-05T23:46:01.832Z,99095.78
2022-10-05T23:48:30.478Z,99097.75
2022-10-05T23:50:58.555Z,99100.72
2022-10-05T23:53:25.905Z,99096.59
2022-10-05T23:55:53.972Z,99107.16
2022-10-05T23:58:22.339Z,99107.91
